Time;durP1;ratioP1;P1;durP2;ratioP2;P2;SDS_P1;SDS_P2;PMS_P1;PMS_P2;Temp;Humidity;BMP_temperature;BMP_pressure;BME280_temperature;BME280_humidity;BME280_pressure;Samples;Min_cycle;Max_cycle;Signal;HPM_P1;HPM_P2
2023/11/02 00:08:58;;;;;;;;;;;6.50;99.90;;;;;;21276997;27;20361;-80
2023/11/02 00:18:58;;;;;;;;;;;6.80;99.90;;;;;;21274646;27;19916;-80
2023/11/02 00:28:59;;;;;;;;;;;6.80;99.90;;;;;;21258393;27;19923;-80
2023/11/02 00:38:59;;;;;;;;;;;6.90;99.90;;;;;;21177521;27;19916;-80
2023/11/02 00:49:03;;;;;;;;;;;6.90;99.90;;;;;;21158714;28;19912;-81
2023/11/02 00:59:04;;;;;;;;;;;6.80;99.90;;;;;;21184206;28;20053;-80
2023/11/02 01:09:25;;;;;;;;;;;6.70;99.90;;;;;;21188787;28;19965;-81
2023/11/02 01:19:44;;;;;;;;;;;6.60;99.90;;;;;;21146358;28;19976;-80
2023/11/02 01:29:45;;;;;;;;;;;6.80;99.90;;;;;;21214051;27;19915;-79
2023/11/02 01:39:59;;;;;;;;;;;6.50;99.90;;;;;;21276076;27;19936;-81
2023/11/02 01:50:09;;;;;;;;;;;6.60;99.90;;;;;;21275938;27;19960;-80
2023/11/02 02:00:14;;;;;;;;;;;6.50;99.90;;;;;;21256981;27;19919;-80
2023/11/02 02:10:24;;;;;;;;;;;6.40;99.90;;;;;;21277624;27;20266;-81
2023/11/02 02:20:32;;;;;;;;;;;6.50;99.90;;;;;;21270623;27;20325;-80
2023/11/02 02:30:39;;;;;;;;;;;6.50;99.90;;;;;;21272146;27;19967;-79
2023/11/02 02:40:43;;;;;;;;;;;6.70;99.90;;;;;;21272776;27;19930;-79
2023/11/02 02:50:44;;;;;;;;;;;6.80;99.90;;;;;;21270541;27;19915;-81
2023/11/02 03:00:45;;;;;;;;;;;6.70;99.90;;;;;;21261156;27;19915;-80
2023/11/02 03:10:47;;;;;;;;;;;6.50;99.90;;;;;;21247376;27;19967;-81
2023/11/02 03:20:48;;;;;;;;;;;6.50;99.90;;;;;;21264337;27;19912;-79
2023/11/02 03:31:25;;;;;;;;;;;6.50;99.90;;;;;;21264699;27;19915;-80
2023/11/02 03:41:31;;;;;;;;;;;6.60;99.90;;;;;;21173100;27;19915;-81
2023/11/02 03:52:04;;;;;;;;;;;6.60;99.90;;;;;;21265085;27;20331;-81
2023/11/02 04:02:07;;;;;;;;;;;6.50;99.90;;;;;;21219308;27;20002;-81
2023/11/02 04:12:27;;;;;;;;;;;6.60;99.90;;;;;;21255503;27;20344;-80
2023/11/02 04:22:28;;;;;;;;;;;6.50;99.90;;;;;;21202363;27;19926;-80
2023/11/02 04:32:30;;;;;;;;;;;6.50;99.90;;;;;;21305484;27;20334;-79
2023/11/02 04:42:31;;;;;;;;;;;6.70;99.90;;;;;;21327593;27;20006;-80
2023/11/02 04:52:38;;;;;;;;;;;6.50;99.90;;;;;;21327864;27;19915;-80
2023/11/02 05:02:39;;;;;;;;;;;6.50;99.90;;;;;;21349297;27;19979;-81
2023/11/02 05:12:40;;;;;;;;;;;6.70;99.90;;;;;;21367740;27;19915;-81
2023/11/02 05:22:40;;;;;;;;;;;6.80;99.90;;;;;;21363691;27;19911;-80
2023/11/02 05:32:42;;;;;;;;;;;6.80;99.90;;;;;;21327100;27;20343;-81
2023/11/02 05:42:42;;;;;;;;;;;6.80;99.90;;;;;;21352374;27;19915;-79
2023/11/02 05:52:43;;;;;;;;;;;6.90;99.90;;;;;;21337749;27;20364;-80
2023/11/02 06:02:45;;;;;;;;;;;6.80;99.90;;;;;;21335163;27;20205;-81
2023/11/02 06:12:46;;;;;;;;;;;6.80;99.90;;;;;;21341128;27;19915;-78
2023/11/02 06:22:47;;;;;;;;;;;6.90;99.90;;;;;;21349840;27;20014;-78
2023/11/02 06:32:47;;;;;;;;;;;6.90;99.90;;;;;;21348834;27;19915;-79
2023/11/02 06:42:49;;;;;;;;;;;6.90;99.90;;;;;;21341728;27;20452;-78
2023/11/02 06:52:50;;;;;;;;;;;7.00;99.90;;;;;;21321434;27;19915;-78
2023/11/02 07:02:51;;;;;;;;;;;6.90;99.90;;;;;;21316288;27;19953;-79
2023/11/02 07:12:52;;;;;;;;;;;7.00;99.90;;;;;;21359500;27;19915;-78
2023/11/02 07:22:53;;;;;;;;;;;7.10;99.90;;;;;;21366987;27;19915;-78
2023/11/02 07:32:53;;;;;;;;;;;7.30;99.90;;;;;;21375095;27;19922;-79
2023/11/02 07:42:54;;;;;;;;;;;7.30;99.90;;;;;;21380982;27;20357;-79
2023/11/02 07:52:55;;;;;;;;;;;7.40;99.90;;;;;;21366095;27;20285;-79
2023/11/02 08:02:55;;;;;;;;;;;7.40;99.90;;;;;;21362054;27;20359;-79
2023/11/02 08:12:56;;;;;;;;;;;7.40;99.90;;;;;;21346813;27;19931;-79
2023/11/02 08:22:56;;;;;;;;;;;7.50;99.90;;;;;;21336234;27;19986;-78
2023/11/02 08:32:57;;;;;;;;;;;7.50;99.90;;;;;;21345917;27;20294;-79
2023/11/02 08:42:58;;;;;;;;;;;7.50;99.90;;;;;;21345822;27;19919;-78
2023/11/02 08:52:58;;;;;;;;;;;7.60;99.90;;;;;;21352263;27;19938;-79
2023/11/02 09:02:59;;;;;;;;;;;7.60;99.90;;;;;;21339918;27;20007;-79
2023/11/02 09:13:00;;;;;;;;;;;7.70;99.90;;;;;;21337747;27;19940;-79
2023/11/02 09:23:01;;;;;;;;;;;7.80;99.90;;;;;;21335519;27;19942;-79
2023/11/02 09:33:01;;;;;;;;;;;7.80;99.90;;;;;;21312194;27;19922;-77
2023/11/02 09:43:03;;;;;;;;;;;7.90;99.90;;;;;;21324244;27;19972;-77
2023/11/02 09:53:05;;;;;;;;;;;8.00;99.90;;;;;;21309959;27;20038;-78
2023/11/02 10:03:06;;;;;;;;;;;8.10;99.90;;;;;;21346790;27;19911;-79
2023/11/02 10:13:07;;;;;;;;;;;8.10;99.90;;;;;;21323737;27;20281;-80
2023/11/02 10:23:12;;;;;;;;;;;8.20;99.90;;;;;;21350641;27;19911;-79
2023/11/02 10:33:14;;;;;;;;;;;8.30;99.90;;;;;;21352274;27;19939;-80
2023/11/02 10:43:18;;;;;;;;;;;8.50;99.90;;;;;;21338908;27;20392;-79
2023/11/02 10:53:32;;;;;;;;;;;8.60;99.90;;;;;;21347922;27;19994;-79
2023/11/02 11:03:33;;;;;;;;;;;8.70;99.90;;;;;;21356652;27;19997;-80
2023/11/02 11:13:35;;;;;;;;;;;8.70;99.90;;;;;;21365789;27;19922;-79
2023/11/02 11:23:44;;;;;;;;;;;8.80;99.90;;;;;;21362656;27;19911;-80
2023/11/02 11:33:47;;;;;;;;;;;8.90;99.90;;;;;;21348583;27;19923;-80
2023/11/02 11:44:14;;;;;;;;;;;8.90;99.90;;;;;;21355367;27;20396;-79
2023/11/02 11:54:15;;;;;;;;;;;9.00;99.90;;;;;;21371634;27;20404;-79
2023/11/02 12:04:43;;;;;;;;;;;9.10;99.90;;;;;;21350668;27;20381;-80
2023/11/02 12:14:43;;;;;;;;;;;9.00;99.90;;;;;;21367782;27;20282;-80
2023/11/02 12:24:53;;;;;;;;;;;9.10;99.90;;;;;;21379022;27;19911;-78
2023/11/02 12:34:55;;;;;;;;;;;9.00;99.90;;;;;;21374147;27;19923;-80
2023/11/02 12:44:59;;;;;;;;;;;9.00;99.90;;;;;;21356543;27;19939;-79
2023/11/02 12:55:00;;;;;;;;;;;9.10;99.90;;;;;;21389390;27;20313;-80
2023/11/02 13:05:01;;;;;;;;;;;9.20;99.90;;;;;;21403292;27;19918;-81
2023/11/02 13:15:08;;;;;;;;;;;8.90;99.90;;;;;;21371287;27;19919;-80
2023/11/02 13:25:10;;;;;;;;;;;9.20;99.90;;;;;;21407413;27;19932;-82
2023/11/02 13:35:11;;;;;;;;;;;9.30;99.90;;;;;;21397567;27;19915;-80
2023/11/02 13:45:11;;;;;;;;;;;9.00;99.90;;;;;;21420917;27;20297;-79
2023/11/02 13:55:12;;;;;;;;;;;8.80;99.90;;;;;;21438025;27;19914;-80
2023/11/02 14:05:13;;;;;;;;;;;8.70;99.90;;;;;;21432292;27;19915;-80
2023/11/02 14:15:14;;;;;;;;;;;8.80;99.90;;;;;;21401018;27;19922;-79
2023/11/02 14:25:15;;;;;;;;;;;8.80;99.90;;;;;;21393654;27;19911;-80
2023/11/02 14:35:16;;;;;;;;;;;8.80;99.90;;;;;;21406929;27;19915;-82
2023/11/02 14:45:17;;;;;;;;;;;8.80;99.90;;;;;;21390650;27;19915;-81
2023/11/02 14:55:19;;;;;;;;;;;8.60;99.90;;;;;;21391595;27;19922;-80
2023/11/02 15:05:20;;;;;;;;;;;8.50;99.90;;;;;;21393424;27;19918;-80
2023/11/02 15:15:20;;;;;;;;;;;8.40;99.90;;;;;;21387283;27;19990;-81
2023/11/02 15:25:21;;;;;;;;;;;9.20;99.90;;;;;;21402890;27;19915;-80
2023/11/02 15:35:22;;;;;;;;;;;10.40;99.90;;;;;;21367227;27;19923;-80
2023/11/02 15:45:23;;;;;;;;;;;10.50;99.90;;;;;;21325574;27;19952;-81
2023/11/02 15:55:26;;;;;;;;;;;9.90;99.90;;;;;;21329231;27;19962;-78
2023/11/02 16:05:27;;;;;;;;;;;9.50;99.90;;;;;;21332095;27;19995;-78
2023/11/02 16:15:28;;;;;;;;;;;8.90;99.90;;;;;;21346105;27;19919;-79
2023/11/02 16:25:28;;;;;;;;;;;8.30;99.90;;;;;;21344928;27;19921;-80
2023/11/02 16:35:29;;;;;;;;;;;7.90;99.90;;;;;;21367259;27;19915;-79
2023/11/02 16:45:32;;;;;;;;;;;8.20;99.90;;;;;;21336881;27;19918;-80
2023/11/02 16:55:33;;;;;;;;;;;8.20;99.90;;;;;;21375297;27;20057;-81
2023/11/02 17:05:34;;;;;;;;;;;8.00;99.90;;;;;;21380334;27;20304;-80
2023/11/02 17:15:36;;;;;;;;;;;8.10;99.90;;;;;;21366420;27;20004;-81
2023/11/02 17:25:36;;;;;;;;;;;8.10;99.90;;;;;;21388022;27;19914;-81
2023/11/02 17:35:37;;;;;;;;;;;8.20;99.90;;;;;;21393783;27;19930;-81
2023/11/02 17:45:39;;;;;;;;;;;8.10;99.90;;;;;;21366647;27;20436;-81
2023/11/02 17:55:42;;;;;;;;;;;8.20;99.90;;;;;;21355081;27;20324;-80
2023/11/02 18:05:43;;;;;;;;;;;8.30;99.90;;;;;;21342774;27;19950;-79
2023/11/02 18:15:49;;;;;;;;;;;8.40;99.90;;;;;;21327384;27;19923;-79
2023/11/02 18:25:50;;;;;;;;;;;8.40;99.90;;;;;;21282974;27;19911;-78
2023/11/02 18:35:50;;;;;;;;;;;8.40;99.90;;;;;;21316520;27;19992;-80
2023/11/02 18:45:51;;;;;;;;;;;8.20;99.90;;;;;;21323612;27;20330;-78
2023/11/02 18:55:52;;;;;;;;;;;8.10;99.90;;;;;;21333308;27;19940;-78
2023/11/02 19:05:54;;;;;;;;;;;8.10;99.90;;;;;;21367230;27;20270;-78
2023/11/02 19:15:55;;;;;;;;;;;8.00;99.90;;;;;;21351011;27;19924;-78
2023/11/02 19:25:56;;;;;;;;;;;7.90;99.90;;;;;;21342556;27;19919;-77
2023/11/02 19:35:59;;;;;;;;;;;7.60;99.90;;;;;;21354457;27;19933;-77
2023/11/02 19:45:59;;;;;;;;;;;7.50;99.90;;;;;;21329603;27;19915;-77
2023/11/02 19:56:01;;;;;;;;;;;7.20;99.90;;;;;;21337655;27;19961;-78
2023/11/02 20:06:03;;;;;;;;;;;7.40;99.90;;;;;;21364592;27;19911;-78
2023/11/02 20:16:03;;;;;;;;;;;7.30;99.90;;;;;;21360205;27;19915;-78
2023/11/02 20:26:04;;;;;;;;;;;6.90;99.90;;;;;;21359242;27;19915;-77
2023/11/02 20:36:08;;;;;;;;;;;6.20;99.90;;;;;;21376861;27;19999;-79
2023/11/02 20:46:09;;;;;;;;;;;5.80;99.90;;;;;;21378495;27;19911;-80
2023/11/02 20:56:10;;;;;;;;;;;6.00;99.90;;;;;;21346411;27;20365;-80
2023/11/02 21:06:12;;;;;;;;;;;6.10;99.90;;;;;;21348261;27;19950;-80
2023/11/02 21:16:13;;;;;;;;;;;6.20;99.90;;;;;;21344605;27;20010;-80
2023/11/02 21:26:14;;;;;;;;;;;6.20;99.90;;;;;;21341532;27;19915;-80
2023/11/02 21:36:14;;;;;;;;;;;6.30;99.90;;;;;;21339719;27;19963;-80
2023/11/02 21:46:15;;;;;;;;;;;6.50;99.90;;;;;;21349724;27;19969;-80
2023/11/02 21:56:16;;;;;;;;;;;6.50;99.90;;;;;;21327366;27;19915;-80
2023/11/02 22:06:16;;;;;;;;;;;6.70;99.90;;;;;;21346419;27;19915;-79
2023/11/02 22:16:18;;;;;;;;;;;6.70;99.90;;;;;;21341728;27;19916;-79
2023/11/02 22:26:22;;;;;;;;;;;6.20;99.90;;;;;;21332178;27;19911;-79
2023/11/02 22:36:23;;;;;;;;;;;5.90;99.90;;;;;;21323880;27;21165;-79
2023/11/02 22:46:25;;;;;;;;;;;5.50;99.90;;;;;;21356149;27;19919;-79
2023/11/02 22:56:26;;;;;;;;;;;5.60;99.90;;;;;;21381444;27;19963;-79
2023/11/02 23:06:26;;;;;;;;;;;5.20;99.90;;;;;;21364287;27;19910;-79
2023/11/02 23:16:27;;;;;;;;;;;5.00;99.90;;;;;;21391666;27;19923;-80
2023/11/02 23:26:28;;;;;;;;;;;4.70;99.90;;;;;;21348548;27;19911;-79
2023/11/02 23:36:29;;;;;;;;;;;4.50;99.90;;;;;;21346846;27;19915;-79
2023/11/02 23:46:30;;;;;;;;;;;4.70;99.90;;;;;;21352559;27;19914;-80
2023/11/02 23:56:34;;;;;;;;;;;4.70;99.90;;;;;;21320695;27;19923;-79
